Time;durP1;ratioP1;P1;durP2;ratioP2;P2;SDS_P1;SDS_P2;PMS_P1;PMS_P2;Temp;Humidity;BMP_temperature;BMP_pressure;BME280_temperature;BME280_humidity;BME280_pressure;Samples;Min_cycle;Max_cycle;Signal;HPM_P1;HPM_P2
2023/03/04 00:00:10;;;;;;;11.33;2.30;;;;;;;;;;4958979;28;20230;-87
2023/03/04 00:02:36;;;;;;;11.70;2.87;;;;;;;;;;4952049;28;20229;-86
2023/03/04 00:05:07;;;;;;;14.43;3.10;;;;;;;;;;4957934;28;20226;-84
2023/03/04 00:07:33;;;;;;;7.23;2.33;;;;;;;;;;4941373;28;20237;-87
2023/03/04 00:09:58;;;;;;;7.73;2.40;;;;;;;;;;4912664;28;20595;-85
2023/03/04 00:12:28;;;;;;;8.57;2.10;;;;;;;;;;4959362;28;20226;-87
2023/03/04 00:14:54;;;;;;;10.07;2.27;;;;;;;;;;4931778;28;20230;-88
2023/03/04 00:17:22;;;;;;;11.80;2.70;;;;;;;;;;4927309;28;20633;-86
2023/03/04 00:19:48;;;;;;;10.83;2.13;;;;;;;;;;4913203;28;20229;-87
2023/03/04 00:22:14;;;;;;;7.83;2.10;;;;;;;;;;4939993;28;20309;-87
2023/03/04 00:24:39;;;;;;;10.33;2.37;;;;;;;;;;4963357;28;20217;-87
2023/03/04 00:27:07;;;;;;;7.30;2.50;;;;;;;;;;4930890;28;20242;-87
2023/03/04 00:29:32;;;;;;;11.67;2.97;;;;;;;;;;4958983;28;20229;-86
2023/03/04 00:31:58;;;;;;;11.20;2.47;;;;;;;;;;4936700;28;20194;-88
2023/03/04 00:34:29;;;;;;;10.60;2.30;;;;;;;;;;4953651;28;20271;-86
2023/03/04 00:37:00;;;;;;;9.93;2.30;;;;;;;;;;4909736;28;20226;-86
2023/03/04 00:39:27;;;;;;;5.97;2.20;;;;;;;;;;4941958;28;20301;-88
2023/03/04 00:41:53;;;;;;;10.30;2.30;;;;;;;;;;4941853;28;20214;-87
2023/03/04 00:44:18;;;;;;;9.90;2.10;;;;;;;;;;4940058;28;20292;-86
2023/03/04 00:46:44;;;;;;;8.87;2.10;;;;;;;;;;4912799;28;20300;-86
2023/03/04 00:49:10;;;;;;;6.77;2.00;;;;;;;;;;4945657;28;20221;-89
2023/03/04 00:51:36;;;;;;;9.57;2.43;;;;;;;;;;4936846;28;21092;-86
2023/03/04 00:54:04;;;;;;;10.00;1.87;;;;;;;;;;4908886;28;20249;-87
2023/03/04 00:56:32;;;;;;;8.47;2.37;;;;;;;;;;4927527;28;20222;-85
2023/03/04 00:59:02;;;;;;;8.80;2.13;;;;;;;;;;4932384;28;20218;-88
2023/03/04 01:01:30;;;;;;;7.67;2.43;;;;;;;;;;4943286;28;20318;-87
2023/03/04 01:03:57;;;;;;;8.53;2.30;;;;;;;;;;4970312;28;20247;-88
2023/03/04 01:06:23;;;;;;;7.67;2.47;;;;;;;;;;4927069;28;20241;-86
2023/03/04 01:08:49;;;;;;;8.00;2.13;;;;;;;;;;4959439;28;20226;-86
2023/03/04 01:11:17;;;;;;;6.50;2.00;;;;;;;;;;4922477;28;20213;-85
2023/03/04 01:13:43;;;;;;;8.10;2.20;;;;;;;;;;4939297;28;20237;-86
2023/03/04 01:16:11;;;;;;;5.60;1.73;;;;;;;;;;4956970;28;20717;-86
2023/03/04 01:18:42;;;;;;;8.10;2.10;;;;;;;;;;4964900;28;20221;-85
2023/03/04 01:21:07;;;;;;;13.37;2.20;;;;;;;;;;4910065;28;20226;-87
2023/03/04 01:23:33;;;;;;;7.20;1.93;;;;;;;;;;4931957;28;20250;-86
2023/03/04 01:25:58;;;;;;;7.10;1.87;;;;;;;;;;4922660;28;20238;-88
2023/03/04 01:28:24;;;;;;;10.73;2.33;;;;;;;;;;4941849;28;20602;-85
2023/03/04 01:30:49;;;;;;;6.70;1.97;;;;;;;;;;4957615;28;20230;-86
2023/03/04 01:33:15;;;;;;;7.50;1.90;;;;;;;;;;4956332;28;20224;-86
2023/03/04 01:35:45;;;;;;;7.97;1.83;;;;;;;;;;4959072;28;20262;-85
2023/03/04 01:38:11;;;;;;;8.77;2.00;;;;;;;;;;4935021;28;20214;-87
2023/03/04 01:40:42;;;;;;;12.00;2.43;;;;;;;;;;4947532;28;20573;-87
2023/03/04 01:43:13;;;;;;;7.03;1.77;;;;;;;;;;4946507;28;20292;-86
2023/03/04 01:45:40;;;;;;;7.83;1.60;;;;;;;;;;4937422;28;20229;-87
2023/03/04 01:48:09;;;;;;;7.47;2.17;;;;;;;;;;4938760;28;20215;-86
2023/03/04 01:50:35;;;;;;;5.67;1.83;;;;;;;;;;4963853;28;20465;-88
2023/03/04 01:53:03;;;;;;;7.57;2.03;;;;;;;;;;4941129;28;20222;-81
2023/03/04 01:55:29;;;;;;;7.17;2.23;;;;;;;;;;4936009;28;20699;-86
2023/03/04 01:57:56;;;;;;;7.57;2.00;;;;;;;;;;4949036;28;20232;-86
2023/03/04 02:00:24;;;;;;;6.60;1.80;;;;;;;;;;4943564;28;20225;-87
2023/03/04 02:02:59;;;;;;;4.90;1.67;;;;;;;;;;4966109;28;20225;-87
2023/03/04 02:05:27;;;;;;;5.73;1.50;;;;;;;;;;4933443;28;20225;-86
2023/03/04 02:07:55;;;;;;;6.43;1.93;;;;;;;;;;4926697;28;20226;-86
2023/03/04 02:10:24;;;;;;;5.07;1.50;;;;;;;;;;4945436;28;20222;-86
2023/03/04 02:12:50;;;;;;;5.57;1.87;;;;;;;;;;4954057;28;20250;-88
2023/03/04 02:15:18;;;;;;;4.37;1.47;;;;;;;;;;4962524;28;20226;-85
2023/03/04 02:17:43;;;;;;;4.73;1.30;;;;;;;;;;4957679;28;20221;-87
2023/03/04 02:20:29;;;;;;;6.07;1.70;;;;;;;;;;4916780;28;20222;-89
2023/03/04 02:22:58;;;;;;;5.63;1.63;;;;;;;;;;4947970;28;20230;-86
2023/03/04 02:25:31;;;;;;;5.90;1.20;;;;;;;;;;4979133;28;20226;-89
2023/03/04 02:27:57;;;;;;;4.50;1.33;;;;;;;;;;4927118;28;20613;-87
2023/03/04 02:30:25;;;;;;;3.60;1.13;;;;;;;;;;4931420;28;20309;-85
2023/03/04 02:32:54;;;;;;;3.87;1.30;;;;;;;;;;4950502;28;20296;-87
2023/03/04 02:35:19;;;;;;;2.93;1.30;;;;;;;;;;4952002;28;20766;-85
2023/03/04 02:37:45;;;;;;;4.90;1.57;;;;;;;;;;4918432;28;20302;-87
2023/03/04 02:40:28;;;;;;;5.90;1.43;;;;;;;;;;4946652;28;20233;-88
2023/03/04 02:42:53;;;;;;;3.37;1.30;;;;;;;;;;4936116;28;20338;-87
2023/03/04 02:45:38;;;;;;;4.40;1.40;;;;;;;;;;4945849;28;20222;-85
2023/03/04 02:48:06;;;;;;;4.60;1.30;;;;;;;;;;4974811;28;20230;-87
2023/03/04 02:50:36;;;;;;;6.27;1.60;;;;;;;;;;4943543;28;20996;-86
2023/03/04 02:53:04;;;;;;;4.00;1.33;;;;;;;;;;4961057;28;20453;-87
2023/03/04 02:55:31;;;;;;;4.50;1.63;;;;;;;;;;4923372;28;20222;-88
2023/03/04 02:57:57;;;;;;;7.33;1.77;;;;;;;;;;4942809;28;20217;-88
2023/03/04 03:00:25;;;;;;;3.57;1.10;;;;;;;;;;4925878;28;20702;-87
2023/03/04 03:02:55;;;;;;;6.27;1.87;;;;;;;;;;4943832;28;20214;-85
2023/03/04 03:05:23;;;;;;;6.17;1.20;;;;;;;;;;4954238;28;20310;-89
2023/03/04 03:07:54;;;;;;;2.83;1.00;;;;;;;;;;4911893;28;20237;-88
2023/03/04 03:10:23;;;;;;;5.37;1.30;;;;;;;;;;4943756;28;20226;-88
2023/03/04 03:12:51;;;;;;;4.50;1.30;;;;;;;;;;4942187;28;20219;-87
2023/03/04 03:15:18;;;;;;;5.20;1.50;;;;;;;;;;4948347;28;20226;-88
2023/03/04 03:17:43;;;;;;;3.97;1.27;;;;;;;;;;4956295;28;20230;-85
2023/03/04 03:20:10;;;;;;;11.70;1.80;;;;;;;;;;4965045;28;20297;-86
2023/03/04 03:22:37;;;;;;;6.90;1.60;;;;;;;;;;4949865;28;20826;-83
2023/03/04 03:25:06;;;;;;;6.63;1.43;;;;;;;;;;4914554;28;20222;-86
2023/03/04 03:27:31;;;;;;;6.80;1.60;;;;;;;;;;4967773;28;20222;-84
2023/03/04 03:29:59;;;;;;;5.87;1.50;;;;;;;;;;4950443;28;20223;-86
2023/03/04 03:32:26;;;;;;;6.53;1.70;;;;;;;;;;4956215;28;20234;-83
2023/03/04 03:34:54;;;;;;;4.50;1.30;;;;;;;;;;4947640;28;20218;-85
2023/03/04 03:37:22;;;;;;;6.67;1.60;;;;;;;;;;4937223;28;20823;-85
2023/03/04 03:39:50;;;;;;;6.00;1.37;;;;;;;;;;4965807;28;20316;-85
2023/03/04 03:42:15;;;;;;;5.67;2.00;;;;;;;;;;4953245;28;20266;-88
2023/03/04 03:44:44;;;;;;;5.30;1.57;;;;;;;;;;4940230;28;20824;-85
2023/03/04 03:47:17;;;;;;;5.20;1.40;;;;;;;;;;4943773;28;20258;-86
2023/03/04 03:49:42;;;;;;;8.03;1.90;;;;;;;;;;4923980;29;20318;-85
2023/03/04 03:52:10;;;;;;;7.40;1.70;;;;;;;;;;4954149;28;20222;-85
2023/03/04 03:54:35;;;;;;;8.13;1.40;;;;;;;;;;4947919;28;20232;-87
2023/03/04 03:57:01;;;;;;;6.03;1.70;;;;;;;;;;4960481;28;21226;-86
2023/03/04 03:59:29;;;;;;;7.07;1.77;;;;;;;;;;4959305;28;20652;-88
2023/03/04 04:01:57;;;;;;;6.60;1.50;;;;;;;;;;4928648;28;20245;-87
2023/03/04 04:04:23;;;;;;;6.63;1.53;;;;;;;;;;4959588;28;20304;-87
2023/03/04 04:06:50;;;;;;;4.13;1.53;;;;;;;;;;4960811;28;20226;-87
2023/03/04 04:09:18;;;;;;;4.77;1.47;;;;;;;;;;4943793;28;20222;-85
2023/03/04 04:11:46;;;;;;;6.37;1.70;;;;;;;;;;4945481;28;20229;-85
2023/03/04 04:14:12;;;;;;;6.40;1.30;;;;;;;;;;4970120;28;20257;-86
2023/03/04 04:16:38;;;;;;;6.47;1.47;;;;;;;;;;4914195;28;20232;-86
2023/03/04 04:19:05;;;;;;;4.70;1.60;;;;;;;;;;4965830;28;20222;-83
2023/03/04 04:21:33;;;;;;;11.17;2.30;;;;;;;;;;4923699;28;20305;-86
2023/03/04 04:24:01;;;;;;;5.57;1.50;;;;;;;;;;4913424;28;20217;-87
2023/03/04 04:26:26;;;;;;;8.37;2.10;;;;;;;;;;4940447;28;20225;-84
2023/03/04 04:28:54;;;;;;;3.93;1.50;;;;;;;;;;4943068;28;20226;-87
2023/03/04 04:31:22;;;;;;;4.13;1.43;;;;;;;;;;4918974;28;20291;-87
2023/03/04 04:33:47;;;;;;;9.60;1.93;;;;;;;;;;4932401;28;21301;-86
2023/03/04 04:36:18;;;;;;;7.17;1.60;;;;;;;;;;4962826;28;20268;-86
2023/03/04 04:38:44;;;;;;;3.80;1.67;;;;;;;;;;4913735;28;20218;-85
2023/03/04 04:41:19;;;;;;;6.30;1.90;;;;;;;;;;4964757;28;20726;-85
2023/03/04 04:43:49;;;;;;;8.10;1.80;;;;;;;;;;4945785;28;20230;-88
2023/03/04 04:46:17;;;;;;;5.13;1.67;;;;;;;;;;4948899;28;20365;-85
2023/03/04 04:48:43;;;;;;;7.50;1.60;;;;;;;;;;4946304;28;20976;-87
2023/03/04 04:51:08;;;;;;;6.47;1.97;;;;;;;;;;4943388;28;20313;-87
2023/03/04 04:53:36;;;;;;;4.63;1.70;;;;;;;;;;4931532;28;20229;-82
2023/03/04 04:56:14;;;;;;;7.20;1.80;;;;;;;;;;4927724;28;21000;-86
2023/03/04 04:58:39;;;;;;;5.50;1.87;;;;;;;;;;4940527;28;20231;-86
2023/03/04 05:01:05;;;;;;;6.57;1.67;;;;;;;;;;4942728;28;20230;-86
2023/03/04 05:03:33;;;;;;;6.63;1.90;;;;;;;;;;4944769;28;20233;-85
2023/03/04 05:05:59;;;;;;;4.77;1.60;;;;;;;;;;4955301;28;20638;-84
2023/03/04 05:08:24;;;;;;;5.00;2.10;;;;;;;;;;4968277;28;20280;-83
2023/03/04 05:10:52;;;;;;;7.57;1.90;;;;;;;;;;4927506;28;20233;-85
2023/03/04 05:13:18;;;;;;;4.17;1.80;;;;;;;;;;4944232;28;20218;-86
2023/03/04 05:15:44;;;;;;;7.77;2.07;;;;;;;;;;4914923;28;20221;-89
2023/03/04 05:18:12;;;;;;;3.70;1.47;;;;;;;;;;4938355;28;20264;-85
2023/03/04 05:20:40;;;;;;;7.30;2.00;;;;;;;;;;4943463;28;21222;-85
2023/03/04 05:23:08;;;;;;;3.83;1.53;;;;;;;;;;4955884;28;20242;-87
2023/03/04 05:25:34;;;;;;;5.87;1.73;;;;;;;;;;4946078;28;20736;-86
2023/03/04 05:28:03;;;;;;;5.77;1.73;;;;;;;;;;4958131;28;20691;-85
2023/03/04 05:30:29;;;;;;;7.17;1.90;;;;;;;;;;4926237;28;20280;-87
2023/03/04 05:32:54;;;;;;;5.17;1.90;;;;;;;;;;4941487;28;20233;-86
2023/03/04 05:35:20;;;;;;;4.87;2.10;;;;;;;;;;4924282;28;20240;-87
2023/03/04 05:37:48;;;;;;;8.17;2.10;;;;;;;;;;4931236;28;20231;-87
2023/03/04 05:40:16;;;;;;;5.17;2.00;;;;;;;;;;4925260;28;20221;-87
2023/03/04 05:42:44;;;;;;;7.80;2.10;;;;;;;;;;4950290;28;20286;-87
2023/03/04 05:45:10;;;;;;;4.80;2.10;;;;;;;;;;4944768;28;20716;-86
2023/03/04 05:47:38;;;;;;;2.67;1.67;;;;;;;;;;4908466;28;20230;-86
2023/03/04 05:50:04;;;;;;;5.50;1.87;;;;;;;;;;4923810;28;20202;-88
2023/03/04 05:52:29;;;;;;;7.60;1.60;;;;;;;;;;4938322;28;20792;-88
2023/03/04 05:54:55;;;;;;;4.93;1.70;;;;;;;;;;4959561;28;20232;-84
2023/03/04 05:57:20;;;;;;;3.13;1.30;;;;;;;;;;4936081;28;20620;-87
2023/03/04 05:59:46;;;;;;;3.80;1.63;;;;;;;;;;4963181;28;20226;-87
2023/03/04 06:02:11;;;;;;;2.33;1.33;;;;;;;;;;4950015;28;20730;-88
2023/03/04 06:04:39;;;;;;;2.33;1.67;;;;;;;;;;4955239;28;21009;-86
2023/03/04 06:07:05;;;;;;;1.53;1.37;;;;;;;;;;4971809;28;20935;-88
2023/03/04 06:09:30;;;;;;;4.67;1.43;;;;;;;;;;4908629;28;20231;-89
2023/03/04 06:11:56;;;;;;;1.83;1.47;;;;;;;;;;4953269;28;20295;-87
2023/03/04 06:14:22;;;;;;;2.70;1.53;;;;;;;;;;4943401;28;20225;-88
2023/03/04 06:16:48;;;;;;;2.53;1.60;;;;;;;;;;4929077;28;20868;-88
2023/03/04 06:19:16;;;;;;;4.10;1.93;;;;;;;;;;4962113;28;20217;-88
2023/03/04 06:21:44;;;;;;;3.83;2.00;;;;;;;;;;4945896;28;20232;-87
2023/03/04 06:24:12;;;;;;;3.60;1.80;;;;;;;;;;4939770;28;20329;-88
2023/03/04 06:26:37;;;;;;;4.77;2.30;;;;;;;;;;4908792;28;20596;-87
2023/03/04 06:29:04;;;;;;;3.43;1.90;;;;;;;;;;4924535;28;20239;-88
2023/03/04 06:31:29;;;;;;;2.13;1.80;;;;;;;;;;4937475;28;20226;-88
2023/03/04 06:33:57;;;;;;;2.63;1.40;;;;;;;;;;4934342;28;20234;-88
2023/03/04 06:36:23;;;;;;;4.10;2.00;;;;;;;;;;4947487;28;20246;-86
2023/03/04 06:38:48;;;;;;;2.67;1.80;;;;;;;;;;4964762;28;20230;-86
2023/03/04 06:41:14;;;;;;;3.87;1.80;;;;;;;;;;4963551;28;20237;-88
2023/03/04 06:43:39;;;;;;;4.13;2.00;;;;;;;;;;4909539;28;20222;-86
2023/03/04 06:46:06;;;;;;;2.50;1.80;;;;;;;;;;4938938;28;20309;-85
2023/03/04 06:48:34;;;;;;;2.73;1.70;;;;;;;;;;4945732;28;20238;-87
2023/03/04 06:51:09;;;;;;;2.23;1.80;;;;;;;;;;4947144;28;20219;-86
2023/03/04 06:53:35;;;;;;;1.93;1.47;;;;;;;;;;4959942;28;20233;-88
2023/03/04 06:56:03;;;;;;;4.10;1.97;;;;;;;;;;4949543;28;20244;-88
2023/03/04 06:58:28;;;;;;;4.10;2.03;;;;;;;;;;4943553;29;20244;-87
2023/03/04 07:00:54;;;;;;;4.57;2.03;;;;;;;;;;4923860;29;20676;-87
2023/03/04 07:03:19;;;;;;;4.07;1.90;;;;;;;;;;4914541;28;20229;-88
2023/03/04 07:05:45;;;;;;;4.13;1.80;;;;;;;;;;4944272;28;20759;-89
2023/03/04 07:08:13;;;;;;;4.33;1.70;;;;;;;;;;4943028;28;20217;-89
2023/03/04 07:10:41;;;;;;;3.73;1.67;;;;;;;;;;4949309;28;20300;-87
2023/03/04 07:13:07;;;;;;;6.87;2.10;;;;;;;;;;4955156;28;20595;-84
2023/03/04 07:15:35;;;;;;;3.30;1.83;;;;;;;;;;4933478;28;20226;-87
2023/03/04 07:18:01;;;;;;;5.20;2.03;;;;;;;;;;4941863;28;20231;-87
2023/03/04 07:20:26;;;;;;;5.73;1.83;;;;;;;;;;4950583;28;20262;-88
2023/03/04 07:22:52;;;;;;;3.57;1.73;;;;;;;;;;4951170;28;20222;-87
2023/03/04 07:25:17;;;;;;;7.13;2.10;;;;;;;;;;4950982;28;20658;-88
2023/03/04 07:27:45;;;;;;;5.03;1.93;;;;;;;;;;4966562;28;20713;-87
2023/03/04 07:30:13;;;;;;;7.10;2.27;;;;;;;;;;4958933;28;20305;-87
2023/03/04 07:32:44;;;;;;;9.10;2.43;;;;;;;;;;4905415;29;20290;-88
2023/03/04 07:35:14;;;;;;;7.93;1.83;;;;;;;;;;4941454;28;20229;-88
2023/03/04 07:37:42;;;;;;;12.10;2.80;;;;;;;;;;4930805;28;20230;-87
2023/03/04 07:40:09;;;;;;;10.20;2.60;;;;;;;;;;4918202;28;20210;-87
2023/03/04 07:42:34;;;;;;;16.17;3.10;;;;;;;;;;4939886;28;20229;-86
2023/03/04 07:45:05;;;;;;;8.60;2.37;;;;;;;;;;4944531;28;20253;-88
2023/03/04 07:47:30;;;;;;;13.30;3.00;;;;;;;;;;4928973;28;20317;-88
2023/03/04 07:50:01;;;;;;;12.90;3.00;;;;;;;;;;4953093;28;20266;-88
2023/03/04 07:52:29;;;;;;;15.43;3.10;;;;;;;;;;4915847;28;20237;-87
2023/03/04 07:54:58;;;;;;;13.47;3.03;;;;;;;;;;4949864;28;20234;-88
2023/03/04 07:57:23;;;;;;;9.40;2.63;;;;;;;;;;4978178;28;20234;-88
2023/03/04 07:59:49;;;;;;;13.07;2.90;;;;;;;;;;4933595;28;20236;-86
2023/03/04 08:02:16;;;;;;;12.40;2.87;;;;;;;;;;4957135;28;20252;-87
2023/03/04 08:04:42;;;;;;;10.97;3.20;;;;;;;;;;4922828;28;20218;-87
2023/03/04 08:07:07;;;;;;;14.23;3.07;;;;;;;;;;4928899;28;21039;-88
2023/03/04 08:09:35;;;;;;;12.00;2.97;;;;;;;;;;4946891;28;20222;-88
2023/03/04 08:12:03;;;;;;;10.50;3.23;;;;;;;;;;4937554;28;20294;-88
2023/03/04 08:14:29;;;;;;;14.93;3.47;;;;;;;;;;4945167;28;20229;-84
2023/03/04 08:16:54;;;;;;;14.03;3.63;;;;;;;;;;4982040;28;20221;-87
2023/03/04 08:19:20;;;;;;;10.07;2.70;;;;;;;;;;4962596;28;20226;-87
2023/03/04 08:21:48;;;;;;;14.63;3.20;;;;;;;;;;4930189;28;20245;-86
2023/03/04 08:24:14;;;;;;;11.30;2.90;;;;;;;;;;4926931;28;20235;-86
2023/03/04 08:26:44;;;;;;;8.87;2.50;;;;;;;;;;4970837;28;20241;-87
2023/03/04 08:29:13;;;;;;;10.70;2.70;;;;;;;;;;4945461;28;20225;-88
2023/03/04 08:31:41;;;;;;;10.90;2.87;;;;;;;;;;4943429;28;20302;-87
2023/03/04 08:34:08;;;;;;;9.87;2.90;;;;;;;;;;4932055;28;20253;-85
2023/03/04 08:36:34;;;;;;;11.80;3.47;;;;;;;;;;4952204;28;20224;-85
2023/03/04 08:39:00;;;;;;;8.60;2.93;;;;;;;;;;4947202;28;20702;-86
2023/03/04 08:41:26;;;;;;;11.97;2.97;;;;;;;;;;4959023;28;20442;-88
2023/03/04 08:43:52;;;;;;;8.83;2.50;;;;;;;;;;4928574;28;20340;-87
2023/03/04 08:46:17;;;;;;;11.87;3.03;;;;;;;;;;4960113;28;20250;-86
2023/03/04 08:48:45;;;;;;;7.57;2.40;;;;;;;;;;4946365;28;20282;-87
2023/03/04 08:51:12;;;;;;;8.83;2.30;;;;;;;;;;4948791;28;20222;-86
2023/03/04 08:53:40;;;;;;;8.10;1.87;;;;;;;;;;4967989;28;20241;-86
2023/03/04 08:56:06;;;;;;;9.07;1.93;;;;;;;;;;4961998;28;20297;-85
2023/03/04 08:58:34;;;;;;;4.97;2.03;;;;;;;;;;4953960;28;20227;-86
2023/03/04 09:00:59;;;;;;;8.60;2.23;;;;;;;;;;4936185;29;20346;-84
2023/03/04 09:03:25;;;;;;;8.03;2.00;;;;;;;;;;4952435;28;20241;-88
2023/03/04 09:05:51;;;;;;;10.73;2.37;;;;;;;;;;4971421;28;20246;-85
2023/03/04 09:08:19;;;;;;;7.87;1.70;;;;;;;;;;4973722;28;20312;-87
2023/03/04 09:10:45;;;;;;;4.90;1.93;;;;;;;;;;4945615;28;20228;-87
2023/03/04 09:13:10;;;;;;;7.27;2.07;;;;;;;;;;4944495;28;20282;-85
2023/03/04 09:15:36;;;;;;;6.73;1.83;;;;;;;;;;4943650;28;20234;-87
2023/03/04 09:18:03;;;;;;;5.77;2.20;;;;;;;;;;4948726;28;20221;-89
2023/03/04 09:20:29;;;;;;;8.07;1.63;;;;;;;;;;4951465;28;20218;-89
2023/03/04 09:22:55;;;;;;;6.27;1.67;;;;;;;;;;4933122;28;20321;-87
2023/03/04 09:25:20;;;;;;;7.97;2.03;;;;;;;;;;4945331;28;20222;-87
2023/03/04 09:27:48;;;;;;;4.57;1.70;;;;;;;;;;4939434;28;20224;-87
2023/03/04 09:30:14;;;;;;;6.07;2.07;;;;;;;;;;4951414;28;20218;-89
2023/03/04 09:32:41;;;;;;;6.10;2.10;;;;;;;;;;4949211;28;20300;-86
2023/03/04 09:35:09;;;;;;;9.73;2.77;;;;;;;;;;4935430;28;20236;-87
2023/03/04 09:37:37;;;;;;;6.73;1.87;;;;;;;;;;4955693;28;20257;-86
2023/03/04 09:40:04;;;;;;;8.83;2.00;;;;;;;;;;4949493;28;20223;-87
2023/03/04 09:42:37;;;;;;;8.13;2.20;;;;;;;;;;4963249;28;20206;-87
2023/03/04 09:45:07;;;;;;;10.73;2.50;;;;;;;;;;4925578;28;20759;-86
2023/03/04 09:47:33;;;;;;;8.10;2.37;;;;;;;;;;4949825;28;20233;-86
2023/03/04 09:50:18;;;;;;;6.03;2.37;;;;;;;;;;5075980;27;20568;-74
2023/03/04 09:53:06;;;;;;;7.27;2.20;;;;;;;;;;5090558;28;20238;-74
2023/03/04 09:55:42;;;;;;;11.00;2.63;;;;;;;;;;5058938;28;20226;-75
2023/03/04 09:58:29;;;;;;;11.57;2.57;;;;;;;;;;5058078;28;20220;-75
2023/03/04 10:01:00;;;;;;;6.70;2.30;;;;;;;;;;5082866;28;20222;-75
2023/03/04 10:03:43;;;;;;;7.63;2.77;;;;;;;;;;5052345;28;20332;-74
2023/03/04 10:06:12;;;;;;;9.90;2.60;;;;;;;;;;5030085;28;20229;-75
2023/03/04 10:08:48;;;;;;;8.53;2.70;;;;;;;;;;5049299;28;20695;-75
2023/03/04 10:11:29;;;;;;;9.03;2.63;;;;;;;;;;5073480;27;20707;-75
2023/03/04 10:13:59;;;;;;;6.37;2.03;;;;;;;;;;5056271;28;20229;-75
2023/03/04 10:16:40;;;;;;;9.40;2.97;;;;;;;;;;5060377;28;20234;-73
2023/03/04 10:19:23;;;;;;;9.77;2.80;;;;;;;;;;5060078;28;20222;-74
2023/03/04 10:21:50;;;;;;;8.63;2.60;;;;;;;;;;5062060;28;20241;-76
2023/03/04 10:24:21;;;;;;;10.47;2.50;;;;;;;;;;5057741;28;20738;-74
2023/03/04 10:27:01;;;;;;;11.67;2.87;;;;;;;;;;5061259;28;20246;-75
2023/03/04 10:29:27;;;;;;;9.00;2.60;;;;;;;;;;5046047;28;20228;-75
2023/03/04 10:31:55;;;;;;;6.60;2.80;;;;;;;;;;5052454;28;20612;-75
2023/03/04 10:34:23;;;;;;;11.37;3.00;;;;;;;;;;5049061;27;20734;-74
2023/03/04 10:37:00;;;;;;;10.07;2.40;;;;;;;;;;5065408;28;20246;-74
2023/03/04 10:39:43;;;;;;;11.97;3.17;;;;;;;;;;5076563;27;20237;-75
2023/03/04 10:42:14;;;;;;;8.47;2.63;;;;;;;;;;5061129;27;20254;-75
2023/03/04 10:44:55;;;;;;;10.93;2.90;;;;;;;;;;5072799;28;20215;-75
2023/03/04 10:47:25;;;;;;;8.87;2.90;;;;;;;;;;5059164;28;20221;-74
2023/03/04 10:49:56;;;;;;;8.33;2.73;;;;;;;;;;5043730;28;20272;-75
2023/03/04 10:52:29;;;;;;;8.87;2.63;;;;;;;;;;5065213;28;20219;-75
2023/03/04 10:55:05;;;;;;;8.30;2.70;;;;;;;;;;5060192;28;20215;-75
2023/03/04 10:57:43;;;;;;;9.73;3.00;;;;;;;;;;5043551;28;20230;-74
2023/03/04 11:00:17;;;;;;;7.87;2.60;;;;;;;;;;5038672;28;20669;-75
2023/03/04 11:02:45;;;;;;;6.50;2.50;;;;;;;;;;5064349;28;20216;-75
2023/03/04 11:05:14;;;;;;;10.27;2.80;;;;;;;;;;5044093;28;21412;-75
2023/03/04 11:07:41;;;;;;;7.77;2.30;;;;;;;;;;5069459;28;20219;-74
2023/03/04 11:10:23;;;;;;;8.17;2.30;;;;;;;;;;5018779;28;20252;-74
2023/03/04 11:13:00;;;;;;;8.37;2.60;;;;;;;;;;5044595;28;20256;-74
2023/03/04 11:15:27;;;;;;;11.00;3.27;;;;;;;;;;5060988;28;20248;-75
2023/03/04 11:18:03;;;;;;;12.40;2.63;;;;;;;;;;5048468;28;20204;-74
2023/03/04 11:20:42;;;;;;;8.23;2.53;;;;;;;;;;5014560;28;20264;-75
2023/03/04 11:23:15;;;;;;;12.73;3.07;;;;;;;;;;5028773;28;20609;-75
2023/03/04 11:25:52;;;;;;;11.27;3.10;;;;;;;;;;5051074;28;20333;-74
2023/03/04 11:28:23;;;;;;;9.37;2.60;;;;;;;;;;5035489;28;20716;-75
2023/03/04 11:30:56;;;;;;;8.20;3.07;;;;;;;;;;5041266;28;20224;-74
2023/03/04 11:33:31;;;;;;;7.23;2.67;;;;;;;;;;5048004;28;20223;-75
2023/03/04 11:36:05;;;;;;;11.70;3.10;;;;;;;;;;5050523;28;20715;-75
2023/03/04 11:38:34;;;;;;;10.23;4.57;;;;;;;;;;5050122;28;20727;-75
2023/03/04 11:41:05;;;;;;;16.30;3.37;;;;;;;;;;5027643;28;20215;-75
2023/03/04 11:43:37;;;;;;;13.80;4.87;;;;;;;;;;5060741;28;20216;-75
2023/03/04 11:46:12;;;;;;;9.73;3.00;;;;;;;;;;5056880;28;20222;-75
2023/03/04 11:48:55;;;;;;;15.87;3.47;;;;;;;;;;5062633;28;20226;-76
2023/03/04 11:51:44;;;;;;;9.60;3.33;;;;;;;;;;5061502;28;21045;-75
2023/03/04 11:54:56;;;;;;;14.10;4.43;;;;;;;;;;5060741;28;20222;-75
2023/03/04 11:57:21;;;;;;;7.23;2.63;;;;;;;;;;5057121;28;20257;-74
2023/03/04 12:00:12;;;;;;;10.53;3.13;;;;;;;;;;5061134;28;20207;-76
2023/03/04 12:02:47;;;;;;;12.07;3.83;;;;;;;;;;5043886;28;20214;-76
2023/03/04 12:05:17;;;;;;;20.87;4.10;;;;;;;;;;5042262;28;20258;-75
2023/03/04 12:07:58;;;;;;;10.97;3.80;;;;;;;;;;5047737;28;20218;-74
2023/03/04 12:10:35;;;;;;;10.60;3.33;;;;;;;;;;5045153;28;20280;-75
2023/03/04 12:13:29;;;;;;;13.87;3.10;;;;;;;;;;5064590;28;20227;-76
2023/03/04 12:16:24;;;;;;;12.10;3.60;;;;;;;;;;5059025;28;20276;-75
2023/03/04 12:19:11;;;;;;;10.67;2.73;;;;;;;;;;5047436;28;20238;-75
2023/03/04 12:22:09;;;;;;;7.63;2.50;;;;;;;;;;5045106;28;20221;-75
2023/03/04 12:24:59;;;;;;;11.00;3.33;;;;;;;;;;5055958;28;20220;-75
2023/03/04 12:27:40;;;;;;;13.57;3.33;;;;;;;;;;5050209;28;20227;-75
2023/03/04 12:30:21;;;;;;;10.87;3.73;;;;;;;;;;5062692;28;20254;-75
2023/03/04 12:32:58;;;;;;;9.33;3.13;;;;;;;;;;5041343;28;20602;-74
2023/03/04 12:35:32;;;;;;;8.77;3.67;;;;;;;;;;5050818;28;20287;-76
2023/03/04 12:38:20;;;;;;;8.40;3.10;;;;;;;;;;5044918;28;20228;-75
2023/03/04 12:41:00;;;;;;;8.03;3.03;;;;;;;;;;5067779;28;20238;-73
2023/03/04 12:43:26;;;;;;;13.07;3.53;;;;;;;;;;5057293;28;20235;-73
2023/03/04 12:46:18;;;;;;;10.47;3.43;;;;;;;;;;5064632;28;20227;-74
2023/03/04 12:48:50;;;;;;;10.27;2.93;;;;;;;;;;5043683;28;20275;-75
2023/03/04 12:51:30;;;;;;;13.43;2.93;;;;;;;;;;5033814;28;20268;-74
2023/03/04 12:53:56;;;;;;;12.27;3.43;;;;;;;;;;5060369;28;20221;-75
2023/03/04 12:56:47;;;;;;;8.37;2.47;;;;;;;;;;5057806;28;20305;-75
2023/03/04 12:59:15;;;;;;;8.00;2.63;;;;;;;;;;5043064;28;20361;-76
2023/03/04 13:01:46;;;;;;;7.13;2.03;;;;;;;;;;5040067;28;20223;-75
2023/03/04 13:04:22;;;;;;;9.07;3.30;;;;;;;;;;5049704;28;20216;-74
2023/03/04 13:07:07;;;;;;;7.93;3.50;;;;;;;;;;5047729;28;20231;-75
2023/03/04 13:09:39;;;;;;;8.47;2.70;;;;;;;;;;5063335;28;20266;-74
2023/03/04 13:12:20;;;;;;;9.30;3.03;;;;;;;;;;5040588;28;20695;-75
2023/03/04 13:15:09;;;;;;;7.23;2.57;;;;;;;;;;5032974;28;20215;-77
2023/03/04 13:17:48;;;;;;;11.30;3.30;;;;;;;;;;5049754;28;20707;-76
2023/03/04 13:20:30;;;;;;;8.77;2.90;;;;;;;;;;5055151;28;20591;-75
2023/03/04 13:22:56;;;;;;;8.63;2.27;;;;;;;;;;5057146;28;20405;-75
2023/03/04 13:25:44;;;;;;;9.37;2.70;;;;;;;;;;5042166;28;20641;-76
2023/03/04 13:28:12;;;;;;;10.07;2.80;;;;;;;;;;5063606;28;20218;-74
2023/03/04 13:31:05;;;;;;;11.47;2.50;;;;;;;;;;5046957;28;20573;-77
2023/03/04 13:33:34;;;;;;;9.23;2.40;;;;;;;;;;5056648;28;20223;-77
2023/03/04 13:36:05;;;;;;;7.97;2.80;;;;;;;;;;5059748;28;20315;-77
2023/03/04 13:38:35;;;;;;;10.90;2.97;;;;;;;;;;5042221;28;20219;-77
2023/03/04 13:41:21;;;;;;;7.67;2.40;;;;;;;;;;5057146;28;20230;-76
2023/03/04 13:43:53;;;;;;;11.00;2.87;;;;;;;;;;5056176;28;20230;-77
2023/03/04 13:46:22;;;;;;;7.47;2.53;;;;;;;;;;5043207;28;20226;-77
2023/03/04 13:48:51;;;;;;;9.53;2.80;;;;;;;;;;5045049;28;20662;-75
2023/03/04 13:51:44;;;;;;;12.37;2.83;;;;;;;;;;5059087;28;20238;-75
2023/03/04 13:54:22;;;;;;;9.67;2.50;;;;;;;;;;5056499;28;20211;-76
2023/03/04 13:57:17;;;;;;;9.37;2.40;;;;;;;;;;5051153;28;20631;-77
2023/03/04 13:59:48;;;;;;;7.80;2.57;;;;;;;;;;5064528;28;20223;-76
2023/03/04 14:02:24;;;;;;;13.77;3.27;;;;;;;;;;5031407;28;20268;-76
2023/03/04 14:04:53;;;;;;;6.77;2.60;;;;;;;;;;5027908;28;20278;-77
2023/03/04 14:07:30;;;;;;;9.37;2.87;;;;;;;;;;5048728;28;20223;-76
2023/03/04 14:10:22;;;;;;;8.90;3.03;;;;;;;;;;5050352;28;20287;-76
2023/03/04 14:12:56;;;;;;;5.33;2.17;;;;;;;;;;5061471;28;20214;-77
2023/03/04 14:15:28;;;;;;;10.77;2.50;;;;;;;;;;5044183;28;20230;-76
2023/03/04 14:17:57;;;;;;;10.37;2.83;;;;;;;;;;5045000;28;20246;-76
2023/03/04 14:20:31;;;;;;;7.07;2.40;;;;;;;;;;5049935;28;20219;-76
2023/03/04 14:22:58;;;;;;;8.70;2.83;;;;;;;;;;5032925;28;20242;-75
2023/03/04 14:25:31;;;;;;;8.97;2.50;;;;;;;;;;5043535;28;20242;-76
2023/03/04 14:28:17;;;;;;;6.87;2.77;;;;;;;;;;5059539;28;20272;-76
2023/03/04 14:30:49;;;;;;;5.50;2.30;;;;;;;;;;5056247;28;20219;-76
2023/03/04 14:33:21;;;;;;;5.50;2.20;;;;;;;;;;5023715;28;20230;-76
2023/03/04 14:35:48;;;;;;;7.07;2.37;;;;;;;;;;5041313;28;20273;-76
2023/03/04 14:38:28;;;;;;;10.13;3.13;;;;;;;;;;5017267;28;20225;-76
2023/03/04 14:41:18;;;;;;;11.93;4.23;;;;;;;;;;5037830;28;20222;-76
2023/03/04 14:44:02;;;;;;;13.93;4.20;;;;;;;;;;5054837;28;20703;-76
2023/03/04 14:46:48;;;;;;;6.77;2.70;;;;;;;;;;5020840;28;20353;-76
2023/03/04 14:49:13;;;;;;;7.40;2.37;;;;;;;;;;5050515;28;20219;-76
2023/03/04 14:51:49;;;;;;;7.93;2.73;;;;;;;;;;5026759;28;20645;-76
2023/03/04 14:54:33;;;;;;;7.63;2.60;;;;;;;;;;5035040;28;20215;-77
2023/03/04 14:57:01;;;;;;;5.93;2.77;;;;;;;;;;5060416;28;20300;-76
2023/03/04 14:59:31;;;;;;;6.83;2.03;;;;;;;;;;5027696;28;20235;-77